Time;durP1;ratioP1;P1;durP2;ratioP2;P2;SDS_P1;SDS_P2;PMS_P1;PMS_P2;Temp;Humidity;BMP_temperature;BMP_pressure;BME280_temperature;BME280_humidity;BME280_pressure;Samples;Min_cycle;Max_cycle;Signal;HPM_P1;HPM_P2
2023/10/03 00:00:31;;;;;;;61.13;21.15;;;13.30;99.90;;;;;;5045990;28;20028;-69
2023/10/03 00:02:57;;;;;;;62.88;21.67;;;13.30;99.90;;;;;;5043966;28;20053;-70
2023/10/03 00:05:33;;;;;;;68.88;22.25;;;13.20;99.90;;;;;;5037753;28;20397;-70
2023/10/03 00:08:01;;;;;;;66.45;22.30;;;13.10;99.90;;;;;;5044048;28;20552;-70
2023/10/03 00:10:28;;;;;;;66.63;22.05;;;13.10;99.90;;;;;;5046143;28;20401;-69
2023/10/03 00:12:54;;;;;;;56.65;20.83;;;13.10;99.90;;;;;;5046627;28;20388;-69
2023/10/03 00:15:24;;;;;;;58.95;20.30;;;13.10;99.90;;;;;;5047018;28;20037;-70
2023/10/03 00:17:51;;;;;;;64.97;21.58;;;13.10;99.90;;;;;;5043585;28;20064;-69
2023/10/03 00:20:18;;;;;;;66.18;22.25;;;13.00;99.90;;;;;;5046382;28;20404;-71
2023/10/03 00:22:44;;;;;;;62.33;20.70;;;13.10;99.90;;;;;;5046072;28;20083;-70
2023/10/03 00:25:17;;;;;;;56.08;20.42;;;13.00;99.90;;;;;;5047707;28;20033;-69
2023/10/03 00:27:46;;;;;;;58.83;21.17;;;13.00;99.90;;;;;;5045353;28;20033;-69
2023/10/03 00:30:14;;;;;;;50.55;20.40;;;13.00;99.90;;;;;;5047914;28;20033;-69
2023/10/03 00:32:41;;;;;;;63.72;21.90;;;12.90;99.90;;;;;;5047679;28;20669;-70
2023/10/03 00:35:08;;;;;;;60.63;21.67;;;12.90;99.90;;;;;;5051962;28;20031;-69
2023/10/03 00:37:35;;;;;;;63.78;22.25;;;12.90;99.90;;;;;;5049276;28;20175;-70
2023/10/03 00:40:16;;;;;;;58.80;21.08;;;12.90;99.90;;;;;;5051715;28;20044;-70
2023/10/03 00:42:43;;;;;;;67.00;22.25;;;12.90;99.90;;;;;;5047441;28;20774;-70
2023/10/03 00:45:10;;;;;;;61.83;21.70;;;12.80;99.90;;;;;;5051766;28;20099;-70
2023/10/03 00:47:35;;;;;;;65.63;23.13;;;12.90;99.90;;;;;;5050023;28;20032;-69
2023/10/03 00:50:03;;;;;;;65.20;21.92;;;12.80;99.90;;;;;;5051349;28;20037;-70
2023/10/03 00:52:31;;;;;;;62.78;22.77;;;12.80;99.90;;;;;;5049075;28;20040;-70
2023/10/03 00:54:59;;;;;;;63.78;21.00;;;12.80;99.90;;;;;;5051633;28;20033;-70
2023/10/03 00:57:24;;;;;;;66.43;21.20;;;12.60;99.90;;;;;;5049071;28;20029;-70
2023/10/03 00:59:50;;;;;;;61.72;21.23;;;12.60;99.90;;;;;;5052396;28;20102;-70
2023/10/03 01:02:20;;;;;;;62.95;21.65;;;12.60;99.90;;;;;;5051084;28;20044;-69
2023/10/03 01:04:46;;;;;;;59.03;21.08;;;12.60;99.90;;;;;;5049183;28;20032;-70
2023/10/03 01:07:12;;;;;;;66.00;21.17;;;12.50;99.90;;;;;;5051267;28;20584;-70
2023/10/03 01:09:37;;;;;;;56.53;20.25;;;12.50;99.90;;;;;;5050519;28;20041;-69
2023/10/03 01:12:03;;;;;;;65.85;20.52;;;12.40;99.90;;;;;;5051112;28;20143;-69
2023/10/03 01:14:34;;;;;;;57.20;19.55;;;12.40;99.90;;;;;;5050192;28;20041;-70
2023/10/03 01:17:01;;;;;;;;;;;12.40;99.90;;;;;;5048157;28;20155;-70
2023/10/03 01:19:30;;;;;;;56.97;20.08;;;12.40;99.90;;;;;;5048576;28;20279;-69
2023/10/03 01:21:57;;;;;;;53.95;19.35;;;12.30;99.90;;;;;;5050008;28;20112;-70
2023/10/03 01:24:25;;;;;;;62.60;20.70;;;12.30;99.90;;;;;;5048513;28;20028;-70
2023/10/03 01:26:52;;;;;;;53.45;18.98;;;12.30;99.90;;;;;;5050053;28;20091;-69
2023/10/03 01:29:21;;;;;;;63.13;20.75;;;12.40;99.90;;;;;;5050932;28;20059;-69
2023/10/03 01:31:52;;;;;;;62.47;20.40;;;12.40;99.90;;;;;;5049505;28;20053;-69
2023/10/03 01:34:17;;;;;;;;;;;12.40;99.90;;;;;;5050724;28;20029;-69
2023/10/03 01:36:45;;;;;;;59.13;19.70;;;12.30;99.90;;;;;;5048506;28;20508;-70
2023/10/03 01:39:12;;;;;;;58.63;19.10;;;12.30;99.90;;;;;;5050106;28;20401;-69
2023/10/03 01:41:40;;;;;;;61.88;21.65;;;12.20;99.90;;;;;;5047713;28;20029;-70
2023/10/03 01:44:06;;;;;;;56.10;19.20;;;12.20;99.90;;;;;;5049235;28;20118;-69
2023/10/03 01:46:32;;;;;;;59.20;19.60;;;12.20;99.90;;;;;;5048374;28;20033;-70
2023/10/03 01:48:57;;;;;;;65.35;20.00;;;12.20;99.90;;;;;;5046721;28;20044;-69
2023/10/03 01:51:23;;;;;;;54.70;19.38;;;12.20;99.90;;;;;;5049428;28;20025;-70
2023/10/03 01:53:49;;;;;;;62.78;20.23;;;12.10;99.90;;;;;;5049299;28;20033;-70
2023/10/03 01:56:15;;;;;;;66.07;21.95;;;12.10;99.90;;;;;;5048848;28;20032;-70
2023/10/03 01:58:41;;;;;;;57.67;20.13;;;12.00;99.90;;;;;;5048743;28;20091;-70
2023/10/03 02:01:07;;;;;;;59.40;21.23;;;12.00;99.90;;;;;;5048299;28;20029;-69
2023/10/03 02:03:35;;;;;;;66.30;21.63;;;12.00;99.90;;;;;;5048126;28;20024;-70
2023/10/03 02:06:01;;;;;;;64.57;21.42;;;11.90;99.90;;;;;;5047916;28;20031;-70
2023/10/03 02:08:27;;;;;;;66.05;21.65;;;12.00;99.90;;;;;;5045315;28;20044;-70
2023/10/03 02:10:53;;;;;;;56.15;21.20;;;12.00;99.90;;;;;;5047375;28;20029;-70
2023/10/03 02:13:21;;;;;;;66.05;21.38;;;11.90;99.90;;;;;;5047417;28;20488;-70
2023/10/03 02:15:52;;;;;;;63.13;21.35;;;11.80;99.90;;;;;;5047602;28;20201;-69
2023/10/03 02:18:19;;;;;;;63.47;21.42;;;11.70;99.90;;;;;;5048276;28;20481;-70
2023/10/03 02:20:51;;;;;;;66.50;20.75;;;11.70;99.90;;;;;;5047760;28;20100;-69
2023/10/03 02:23:23;;;;;;;60.72;21.52;;;11.60;99.90;;;;;;5048419;28;20095;-69
2023/10/03 02:25:53;;;;;;;68.20;21.83;;;11.60;99.90;;;;;;5045188;28;20033;-69
2023/10/03 02:28:20;;;;;;;59.72;19.85;;;11.70;99.90;;;;;;5047417;28;20033;-70
2023/10/03 02:30:50;;;;;;;61.42;20.42;;;11.70;99.90;;;;;;5048352;28;20025;-70
2023/10/03 02:33:18;;;;;;;68.13;21.98;;;11.70;99.90;;;;;;5043353;28;20448;-69
2023/10/03 02:35:47;;;;;;;62.95;20.70;;;11.70;99.90;;;;;;5047796;28;20063;-70
2023/10/03 02:38:29;;;;;;;51.13;18.43;;;11.70;99.90;;;;;;5047601;28;20099;-69
2023/10/03 02:40:59;;;;;;;65.07;20.50;;;11.60;99.90;;;;;;5047095;28;20086;-69
2023/10/03 02:43:27;;;;;;;63.07;20.57;;;11.60;99.90;;;;;;5042192;28;20029;-70
2023/10/03 02:45:53;;;;;;;65.38;20.83;;;11.60;99.90;;;;;;5047739;28;20358;-69
2023/10/03 02:48:20;;;;;;;58.72;21.13;;;11.60;99.90;;;;;;5048348;28;20116;-70
2023/10/03 02:50:47;;;;;;;62.30;19.73;;;11.60;99.90;;;;;;5046501;28;20113;-70
2023/10/03 02:53:19;;;;;;;57.67;19.55;;;11.60;99.90;;;;;;5048248;28;20029;-70
2023/10/03 02:55:45;;;;;;;64.05;19.33;;;11.50;99.90;;;;;;5046156;28;20064;-70
2023/10/03 02:58:13;;;;;;;58.53;19.55;;;11.40;99.90;;;;;;5047627;28;20124;-70
2023/10/03 03:00:39;;;;;;;60.20;20.23;;;11.30;99.90;;;;;;5047609;28;20358;-70
2023/10/03 03:03:06;;;;;;;60.97;20.67;;;11.30;99.90;;;;;;5045996;28;20666;-70
2023/10/03 03:05:37;;;;;;;59.15;20.23;;;11.40;99.90;;;;;;5046735;28;20044;-70
2023/10/03 03:08:22;;;;;;;57.90;19.48;;;11.40;99.90;;;;;;5047947;28;20033;-70
2023/10/03 03:10:57;;;;;;;60.38;19.67;;;11.30;99.90;;;;;;5045643;28;20035;-71
2023/10/03 03:13:31;;;;;;;62.08;20.23;;;11.40;99.90;;;;;;5045796;28;20040;-70
2023/10/03 03:16:00;;;;;;;54.00;17.83;;;11.40;99.90;;;;;;5033604;28;20382;-70
2023/10/03 03:18:31;;;;;;;56.83;18.02;;;11.40;99.90;;;;;;5037750;28;20137;-70
2023/10/03 03:20:58;;;;;;;51.95;18.38;;;11.30;99.90;;;;;;5041039;28;20847;-69
2023/10/03 03:23:35;;;;;;;54.05;18.08;;;11.30;99.90;;;;;;5046644;28;20021;-70
2023/10/03 03:26:17;;;;;;;57.65;17.63;;;11.30;99.90;;;;;;5047288;28;20033;-70
2023/10/03 03:28:49;;;;;;;58.58;18.23;;;11.30;99.90;;;;;;5046438;28;20029;-69
2023/10/03 03:31:22;;;;;;;65.07;20.25;;;11.30;99.90;;;;;;5048211;28;20456;-70
2023/10/03 03:33:58;;;;;;;59.47;19.30;;;11.30;99.90;;;;;;5047861;28;20107;-70
2023/10/03 03:36:34;;;;;;;59.33;18.92;;;11.30;99.90;;;;;;5047418;28;20036;-69
2023/10/03 03:39:13;;;;;;;61.58;19.88;;;11.30;99.90;;;;;;5048418;28;20036;-70
2023/10/03 03:41:40;;;;;;;62.17;19.25;;;11.30;99.90;;;;;;5045659;28;20574;-70
2023/10/03 03:44:11;;;;;;;57.42;19.30;;;11.30;99.90;;;;;;5047355;28;20501;-70
2023/10/03 03:46:39;;;;;;;58.85;19.42;;;11.30;99.90;;;;;;5046906;28;20047;-70
2023/10/03 03:49:05;;;;;;;55.70;17.98;;;11.10;99.90;;;;;;5026812;28;20052;-69
2023/10/03 03:51:30;;;;;;;51.55;18.10;;;11.00;99.90;;;;;;5026620;28;20029;-71
2023/10/03 03:53:56;;;;;;;49.95;18.55;;;11.00;99.90;;;;;;5046485;28;20519;-70
2023/10/03 03:56:22;;;;;;;49.13;17.33;;;11.00;99.90;;;;;;5045095;28;20029;-70
2023/10/03 03:58:48;;;;;;;57.55;18.85;;;10.90;99.90;;;;;;5046281;28;20052;-70
2023/10/03 04:01:16;;;;;;;55.13;18.30;;;10.90;99.90;;;;;;5047626;28;20030;-69
2023/10/03 04:03:42;;;;;;;54.92;18.33;;;10.90;99.90;;;;;;5042499;28;20029;-69
2023/10/03 04:06:11;;;;;;;51.25;18.45;;;10.80;99.90;;;;;;5039652;28;20032;-69
2023/10/03 04:08:38;;;;;;;54.08;17.77;;;10.80;99.90;;;;;;5041789;28;20072;-70
2023/10/03 04:11:07;;;;;;;58.08;19.23;;;10.90;99.90;;;;;;5042674;28;20028;-70
2023/10/03 04:13:38;;;;;;;55.17;18.33;;;10.90;99.90;;;;;;5041497;28;20065;-71
2023/10/03 04:16:06;;;;;;;54.10;18.20;;;11.00;99.90;;;;;;5046405;28;20053;-71
2023/10/03 04:18:33;;;;;;;54.42;18.40;;;11.00;99.90;;;;;;5046298;28;20112;-71
2023/10/03 04:21:04;;;;;;;55.03;18.48;;;11.00;99.90;;;;;;5039759;28;20071;-70
2023/10/03 04:23:29;;;;;;;63.20;18.88;;;10.90;99.90;;;;;;5029586;28;20466;-70
2023/10/03 04:25:56;;;;;;;57.75;18.90;;;10.90;99.90;;;;;;5040741;28;20036;-70
2023/10/03 04:28:22;;;;;;;60.90;19.67;;;10.90;99.90;;;;;;5041180;28;20091;-70
2023/10/03 04:30:49;;;;;;;58.35;18.40;;;10.90;99.90;;;;;;5045727;28;20537;-70
2023/10/03 04:33:20;;;;;;;66.63;20.20;;;11.00;99.90;;;;;;5045749;28;20576;-70
2023/10/03 04:35:46;;;;;;;69.25;22.83;;;11.00;99.90;;;;;;5041947;28;20417;-70
2023/10/03 04:38:15;;;;;;;58.63;20.40;;;11.10;99.90;;;;;;5045062;28;20041;-70
2023/10/03 04:40:42;;;;;;;57.13;19.02;;;11.10;99.90;;;;;;5042696;28;20229;-71
2023/10/03 04:43:10;;;;;;;56.08;18.75;;;11.10;99.90;;;;;;5045228;28;20119;-70
2023/10/03 04:45:40;;;;;;;60.97;20.02;;;11.10;99.90;;;;;;5044030;28;20112;-71
2023/10/03 04:48:06;;;;;;;56.33;18.60;;;11.10;99.90;;;;;;5045293;28;20429;-70
2023/10/03 04:50:35;;;;;;;51.08;17.50;;;11.00;99.90;;;;;;5046173;28;20056;-70
2023/10/03 04:53:02;;;;;;;66.00;20.08;;;11.00;99.90;;;;;;5044808;28;20064;-71
2023/10/03 04:55:27;;;;;;;56.97;18.58;;;10.90;99.90;;;;;;5044620;28;20548;-71
2023/10/03 04:57:54;;;;;;;63.00;18.08;;;10.80;99.90;;;;;;5041708;28;20105;-70
2023/10/03 05:00:22;;;;;;;53.95;18.52;;;10.80;99.90;;;;;;5046176;28;20135;-71
2023/10/03 05:02:50;;;;;;;61.63;19.48;;;10.80;99.90;;;;;;5041402;28;20025;-71
2023/10/03 05:05:18;;;;;;;57.42;18.90;;;10.80;99.90;;;;;;5041353;28;20044;-71
2023/10/03 05:07:49;;;;;;;55.95;18.45;;;10.70;99.90;;;;;;5039325;28;20068;-71
2023/10/03 05:10:17;;;;;;;59.25;19.30;;;10.70;99.90;;;;;;5043806;28;20048;-70
2023/10/03 05:12:45;;;;;;;53.92;19.08;;;10.70;99.90;;;;;;5040951;28;20485;-71
2023/10/03 05:15:12;;;;;;;55.53;18.17;;;10.70;99.90;;;;;;5044620;28;20039;-71
2023/10/03 05:17:38;;;;;;;54.83;17.95;;;10.70;99.90;;;;;;5044733;28;20025;-71
2023/10/03 05:20:04;;;;;;;63.63;19.65;;;10.80;99.90;;;;;;5046382;28;20545;-72
2023/10/03 05:22:33;;;;;;;55.83;17.70;;;10.70;99.90;;;;;;5041877;28;20109;-72
2023/10/03 05:25:03;;;;;;;60.53;18.63;;;10.70;99.90;;;;;;5044842;28;20107;-71
2023/10/03 05:27:29;;;;;;;44.15;15.45;;;10.60;99.90;;;;;;5051048;28;20029;-71
2023/10/03 05:30:08;;;;;;;49.95;17.48;;;10.60;99.90;;;;;;5050433;28;20489;-72
2023/10/03 05:32:39;;;;;;;48.67;17.75;;;10.50;99.90;;;;;;5049629;28;20799;-71
2023/10/03 05:35:06;;;;;;;50.40;16.42;;;10.50;99.90;;;;;;5051135;28;20064;-72
2023/10/03 05:37:33;;;;;;;54.33;16.58;;;10.40;99.90;;;;;;5050747;28;20071;-71
2023/10/03 05:39:59;;;;;;;50.47;17.08;;;10.60;99.90;;;;;;5050351;28;20090;-71
2023/10/03 05:42:26;;;;;;;50.60;16.48;;;10.60;99.90;;;;;;5050999;28;20044;-71
2023/10/03 05:44:53;;;;;;;48.08;16.35;;;10.60;99.90;;;;;;5050185;28;20132;-71
2023/10/03 05:47:19;;;;;;;51.03;16.38;;;10.70;99.90;;;;;;5050957;28;20082;-71
2023/10/03 05:49:45;;;;;;;45.85;15.50;;;10.70;99.90;;;;;;5048733;28;20039;-71
2023/10/03 05:52:11;;;;;;;49.25;16.73;;;10.80;99.90;;;;;;5050881;28;20112;-71
2023/10/03 05:54:37;;;;;;;45.78;16.35;;;10.80;99.90;;;;;;5049123;28;20086;-70
2023/10/03 05:57:03;;;;;;;45.63;16.80;;;10.80;99.90;;;;;;5050584;28;20041;-72
2023/10/03 05:59:29;;;;;;;50.47;16.48;;;10.80;99.90;;;;;;5050841;28;20739;-71
2023/10/03 06:01:57;;;;;;;46.85;16.20;;;10.80;99.90;;;;;;5049919;28;20094;-71
2023/10/03 06:04:23;;;;;;;49.38;16.63;;;10.80;99.90;;;;;;5050740;28;20042;-71
2023/10/03 06:06:49;;;;;;;47.22;16.63;;;10.80;99.90;;;;;;5031219;28;20110;-71
2023/10/03 06:09:15;;;;;;;49.17;15.57;;;10.80;99.90;;;;;;5030581;28;20488;-71
2023/10/03 06:11:42;;;;;;;47.10;16.35;;;10.90;99.90;;;;;;5029881;28;20109;-71
2023/10/03 06:14:08;;;;;;;42.97;16.38;;;10.80;99.90;;;;;;5030624;28;20029;-71
2023/10/03 06:16:36;;;;;;;47.00;16.17;;;10.80;99.90;;;;;;5030591;28;20025;-71
2023/10/03 06:19:03;;;;;;;54.33;17.55;;;10.70;99.90;;;;;;5029780;28;20043;-71
2023/10/03 06:21:29;;;;;;;51.13;16.00;;;10.70;99.90;;;;;;5030362;28;20041;-72
2023/10/03 06:23:54;;;;;;;46.83;16.35;;;10.70;99.90;;;;;;5040666;28;20036;-71
2023/10/03 06:26:20;;;;;;;43.28;15.30;;;10.70;99.90;;;;;;5049979;28;20069;-72
2023/10/03 06:28:48;;;;;;;45.38;15.98;;;10.70;99.90;;;;;;5049103;28;20044;-71
2023/10/03 06:31:14;;;;;;;46.13;15.85;;;10.80;99.90;;;;;;5045105;28;20033;-71
2023/10/03 06:33:44;;;;;;;42.75;14.98;;;10.80;99.90;;;;;;5047982;28;20461;-72
2023/10/03 06:36:11;;;;;;;47.60;15.18;;;10.90;99.90;;;;;;5049767;28;20103;-71
2023/10/03 06:38:37;;;;;;;45.33;15.80;;;11.00;99.90;;;;;;5049802;28;20045;-71
2023/10/03 06:41:04;;;;;;;45.30;15.90;;;11.10;99.90;;;;;;5048876;28;20041;-72
2023/10/03 06:43:30;;;;;;;49.90;16.50;;;11.20;99.90;;;;;;5049671;28;20079;-72
2023/10/03 06:45:56;;;;;;;44.40;15.95;;;11.30;99.90;;;;;;5048423;28;20041;-72
2023/10/03 06:48:24;;;;;;;49.17;17.02;;;11.40;99.90;;;;;;5049692;28;20040;-72
2023/10/03 06:50:52;;;;;;;51.30;17.00;;;11.60;99.90;;;;;;5049011;28;20067;-71
2023/10/03 06:53:18;;;;;;;53.65;16.65;;;11.70;99.90;;;;;;5049733;28;20070;-72
2023/10/03 06:55:48;;;;;;;46.78;15.77;;;11.80;99.90;;;;;;5048872;28;20218;-72
2023/10/03 06:58:14;;;;;;;50.97;15.63;;;11.90;99.90;;;;;;5048282;28;20794;-72
2023/10/03 07:00:40;;;;;;;43.75;15.95;;;12.00;99.90;;;;;;5049608;28;20075;-72
2023/10/03 07:03:06;;;;;;;45.45;15.90;;;12.20;99.90;;;;;;5047607;28;20033;-72
2023/10/03 07:05:33;;;;;;;48.40;16.05;;;12.30;99.90;;;;;;5048043;28;20068;-72
2023/10/03 07:07:59;;;;;;;44.15;16.00;;;12.40;99.90;;;;;;5048697;28;20863;-72
2023/10/03 07:10:25;;;;;;;42.85;14.63;;;12.60;99.90;;;;;;5049254;28;20033;-72
2023/10/03 07:12:51;;;;;;;48.08;16.42;;;12.80;99.90;;;;;;5046974;28;20055;-72
2023/10/03 07:15:18;;;;;;;52.10;17.60;;;13.00;99.90;;;;;;5049086;28;20033;-72
2023/10/03 07:17:44;;;;;;;39.35;15.77;;;13.20;99.90;;;;;;5048520;28;20052;-72
2023/10/03 07:20:12;;;;;;;36.53;13.60;;;13.50;99.90;;;;;;5047580;28;20079;-72
2023/10/03 07:22:38;;;;;;;38.47;13.13;;;13.80;99.90;;;;;;5049048;28;20037;-72
2023/10/03 07:25:06;;;;;;;33.95;11.88;;;14.60;99.90;;;;;;5048197;28;20957;-72
2023/10/03 07:27:34;;;;;;;33.05;12.02;;;15.60;99.90;;;;;;5048983;28;20033;-72
2023/10/03 07:30:03;;;;;;;39.03;13.20;;;16.40;99.90;;;;;;5046690;28;20033;-72
2023/10/03 07:32:32;;;;;;;31.38;10.75;;;16.90;99.90;;;;;;5048921;28;20461;-72
2023/10/03 07:34:59;;;;;;;31.58;11.60;;;17.40;99.90;;;;;;5043191;28;20067;-72
2023/10/03 07:37:24;;;;;;;29.30;11.75;;;17.80;99.90;;;;;;5048333;28;20059;-72
2023/10/03 07:39:50;;;;;;;26.67;10.75;;;18.10;99.90;;;;;;5047938;28;20128;-72
2023/10/03 07:42:17;;;;;;;30.58;10.68;;;18.50;99.90;;;;;;5048200;28;20135;-71
2023/10/03 07:44:44;;;;;;;27.58;11.30;;;18.70;99.90;;;;;;5048346;28;20126;-71
2023/10/03 07:47:10;;;;;;;26.38;10.85;;;18.90;99.90;;;;;;5048324;28;20049;-71
2023/10/03 07:49:37;;;;;;;33.60;11.05;;;19.10;99.90;;;;;;5048483;28;20048;-72
2023/10/03 07:52:04;;;;;;;26.80;10.48;;;19.20;99.90;;;;;;5047850;28;20622;-72
2023/10/03 07:54:31;;;;;;;26.00;10.43;;;19.20;99.90;;;;;;5048384;28;20029;-71
2023/10/03 07:56:58;;;;;;;27.48;10.57;;;19.30;99.90;;;;;;5047711;28;20025;-72
2023/10/03 07:59:25;;;;;;;31.55;10.07;;;19.50;99.90;;;;;;5048430;28;20116;-73
2023/10/03 08:01:51;;;;;;;22.52;9.90;;;19.60;99.90;;;;;;5047581;28;20025;-71
2023/10/03 08:04:17;;;;;;;23.83;9.75;;;19.80;99.90;;;;;;5040484;28;20025;-71
2023/10/03 08:06:43;;;;;;;24.02;9.68;;;19.90;99.90;;;;;;5028060;28;20049;-72
2023/10/03 08:09:10;;;;;;;29.63;10.57;;;20.10;99.90;;;;;;5028246;28;20144;-72
2023/10/03 08:11:36;;;;;;;25.05;9.68;;;20.20;99.90;;;;;;5027046;28;20033;-73
2023/10/03 08:14:13;;;;;;;25.77;9.65;;;20.30;99.90;;;;;;5027611;28;20599;-73
2023/10/03 08:16:43;;;;;;;22.83;9.20;;;20.50;99.90;;;;;;5028268;28;20467;-72
2023/10/03 08:19:21;;;;;;;28.20;9.65;;;20.60;99.90;;;;;;5027494;28;20104;-74
2023/10/03 08:21:48;;;;;;;23.40;9.32;;;20.80;99.90;;;;;;5030245;28;20033;-72
2023/10/03 08:24:18;;;;;;;21.40;9.13;;;21.00;99.90;;;;;;5040912;28;20036;-71
2023/10/03 08:26:50;;;;;;;20.83;8.93;;;21.20;99.90;;;;;;5048064;28;20808;-72
2023/10/03 08:29:26;;;;;;;27.13;8.68;;;21.40;99.90;;;;;;5048240;28;20036;-70
2023/10/03 08:31:59;;;;;;;19.75;7.97;;;21.50;99.90;;;;;;5045879;28;20065;-71
2023/10/03 08:34:29;;;;;;;20.30;8.52;;;21.70;99.90;;;;;;5047954;28;20563;-73
2023/10/03 08:36:58;;;;;;;26.17;8.95;;;21.80;99.90;;;;;;5047091;28;20057;-72
2023/10/03 08:39:29;;;;;;;19.50;8.05;;;21.90;99.90;;;;;;5047984;28;20086;-71
2023/10/03 08:42:13;;;;;;;20.13;7.97;;;22.00;99.90;;;;;;5045765;28;20037;-71
2023/10/03 08:45:16;;;;;;;20.65;8.48;;;22.20;99.90;;;;;;5048138;28;20049;-71
2023/10/03 08:47:47;;;;;;;20.05;8.40;;;22.40;99.90;;;;;;5048021;28;20068;-71
2023/10/03 08:50:29;;;;;;;28.98;9.10;;;22.60;99.90;;;;;;5046490;28;20057;-71
2023/10/03 08:52:56;;;;;;;24.13;8.13;;;22.70;99.90;;;;;;5047014;28;20035;-71
2023/10/03 08:55:26;;;;;;;18.98;7.63;;;22.80;99.90;;;;;;5050203;28;20025;-72
2023/10/03 08:57:52;;;;;;;20.23;7.43;;;22.90;99.90;;;;;;5050927;28;20032;-72
2023/10/03 09:00:25;;;;;;;17.98;7.47;;;23.00;99.90;;;;;;5051657;28;20049;-72
2023/10/03 09:02:59;;;;;;;20.65;7.45;;;23.10;99.90;;;;;;5050931;28;20073;-72
2023/10/03 09:05:26;;;;;;;15.13;6.82;;;23.20;99.90;;;;;;5050245;28;20433;-73
2023/10/03 09:07:58;;;;;;;15.40;7.05;;;23.40;99.90;;;;;;5050775;28;20064;-71
2023/10/03 09:10:26;;;;;;;20.65;7.30;;;23.40;99.90;;;;;;5051639;28;20504;-71
2023/10/03 09:13:04;;;;;;;16.00;7.70;;;23.50;99.90;;;;;;5050698;28;20040;-71
2023/10/03 09:15:38;;;;;;;16.95;7.70;;;23.60;99.90;;;;;;5051596;28;20056;-72
2023/10/03 09:18:10;;;;;;;18.55;7.22;;;23.90;99.90;;;;;;5050519;28;20135;-73
2023/10/03 09:20:36;;;;;;;19.50;7.72;;;24.00;99.70;;;;;;5051378;28;20025;-74
2023/10/03 09:23:06;;;;;;;16.20;6.95;;;24.00;98.20;;;;;;5049126;28;20488;-71
2023/10/03 09:25:32;;;;;;;21.05;6.57;;;24.20;97.60;;;;;;5051362;28;20036;-77
2023/10/03 09:28:05;;;;;;;23.83;7.20;;;24.20;97.00;;;;;;5050374;28;20071;-71
2023/10/03 09:30:38;;;;;;;15.95;6.90;;;24.30;97.20;;;;;;5051165;28;20025;-71
2023/10/03 09:33:08;;;;;;;14.10;6.68;;;24.40;97.70;;;;;;5050359;28;20036;-73
2023/10/03 09:35:40;;;;;;;;;;;24.40;96.90;;;;;;5051598;28;20423;-72
2023/10/03 09:38:17;;;;;;;11.57;6.22;;;24.50;95.90;;;;;;5049535;28;20103;-73
2023/10/03 09:40:51;;;;;;;13.95;6.00;;;24.50;95.80;;;;;;5049458;28;20041;-76
2023/10/03 09:43:19;;;;;;;14.43;6.05;;;24.60;95.30;;;;;;5050521;28;20025;-73
2023/10/03 09:45:47;;;;;;;12.52;6.40;;;24.60;95.40;;;;;;5050719;28;20036;-73
2023/10/03 09:48:13;;;;;;;16.67;6.68;;;24.80;96.70;;;;;;5048499;28;20834;-73
2023/10/03 09:50:51;;;;;;;24.45;6.70;;;24.90;96.20;;;;;;5050792;28;20037;-74
2023/10/03 09:53:18;;;;;;;14.85;6.80;;;25.00;96.20;;;;;;5050390;28;20025;-74
2023/10/03 09:55:46;;;;;;;16.77;6.68;;;25.20;95.30;;;;;;5050517;28;20053;-73
2023/10/03 09:58:13;;;;;;;16.08;6.60;;;25.10;95.70;;;;;;5049607;28;20021;-73
2023/10/03 10:00:51;;;;;;;15.60;7.10;;;25.30;96.10;;;;;;5050543;28;20071;-72
2023/10/03 10:03:26;;;;;;;12.85;6.15;;;25.30;97.10;;;;;;5050377;28;20028;-73
2023/10/03 10:06:12;;;;;;;14.15;6.80;;;25.50;95.90;;;;;;5047561;28;20021;-73
2023/10/03 10:09:13;;;;;;;14.30;7.43;;;25.40;95.40;;;;;;5050576;28;20090;-72
2023/10/03 10:12:21;;;;;;;14.73;6.53;;;25.60;96.30;;;;;;5049025;28;20119;-71
2023/10/03 10:15:02;;;;;;;12.18;6.10;;;25.80;96.50;;;;;;5049030;28;20380;-73
2023/10/03 10:17:45;;;;;;;13.48;6.47;;;25.70;95.50;;;;;;5050396;28;20108;-75
2023/10/03 10:20:13;;;;;;;15.60;7.00;;;25.80;95.30;;;;;;5049488;28;20041;-73
2023/10/03 10:23:02;;;;;;;17.33;6.47;;;25.70;95.10;;;;;;5050049;28;20120;-74
2023/10/03 10:25:37;;;;;;;14.43;6.50;;;25.60;95.20;;;;;;5050088;28;20032;-74
2023/10/03 10:28:05;;;;;;;15.93;6.45;;;25.70;95.00;;;;;;5035209;28;20025;-72
2023/10/03 10:30:32;;;;;;;14.90;6.65;;;25.80;95.90;;;;;;5030099;28;20040;-73
2023/10/03 10:33:16;;;;;;;14.77;6.82;;;26.00;95.20;;;;;;5029329;28;20025;-73
2023/10/03 10:35:54;;;;;;;15.15;6.75;;;26.20;95.60;;;;;;5029840;28;20053;-74
2023/10/03 10:38:32;;;;;;;17.52;6.55;;;26.20;94.70;;;;;;5027870;28;20140;-73
2023/10/03 10:41:22;;;;;;;13.00;6.63;;;26.30;95.50;;;;;;5029142;28;20087;-73
2023/10/03 10:44:13;;;;;;;15.65;6.90;;;26.10;94.20;;;;;;5028521;28;20116;-73
2023/10/03 10:46:45;;;;;;;12.90;6.65;;;26.00;94.20;;;;;;5029853;28;20083;-73
2023/10/03 10:49:36;;;;;;;13.50;6.80;;;26.10;94.20;;;;;;5028994;28;20052;-74
2023/10/03 10:52:09;;;;;;;14.43;6.43;;;26.30;94.90;;;;;;5027394;28;20025;-73
2023/10/03 10:54:39;;;;;;;14.25;5.95;;;26.50;95.20;;;;;;5046496;28;20059;-73
2023/10/03 10:57:14;;;;;;;12.57;6.53;;;26.60;93.60;;;;;;5048571;28;20450;-73
2023/10/03 10:59:40;;;;;;;13.85;5.63;;;26.60;93.80;;;;;;5049571;28;20044;-74
2023/10/03 11:02:22;;;;;;;18.35;6.18;;;26.80;93.70;;;;;;5047083;28;20135;-73
2023/10/03 11:04:58;;;;;;;12.75;6.72;;;26.70;94.40;;;;;;5049342;28;20417;-74
2023/10/03 11:07:26;;;;;;;14.70;6.88;;;26.50;93.50;;;;;;5047694;28;20033;-74
2023/10/03 11:09:54;;;;;;;22.60;6.45;;;26.10;93.90;;;;;;5049164;28;20043;-75
2023/10/03 11:12:26;;;;;;;12.15;6.00;;;25.80;94.00;;;;;;5049062;28;20033;-73
2023/10/03 11:14:56;;;;;;;14.93;6.72;;;26.10;94.40;;;;;;5049179;28;20029;-73
2023/10/03 11:17:23;;;;;;;17.70;6.33;;;26.00;94.00;;;;;;5047353;28;20035;-74
2023/10/03 11:19:52;;;;;;;14.88;6.63;;;26.20;94.10;;;;;;5049092;28;20058;-73
2023/10/03 11:22:18;;;;;;;16.55;6.40;;;26.00;93.70;;;;;;5048323;28;20087;-73
2023/10/03 11:24:45;;;;;;;16.58;6.40;;;25.90;94.60;;;;;;5048851;28;20086;-72
2023/10/03 11:27:28;;;;;;;12.75;6.03;;;25.90;94.20;;;;;;5048186;28;20052;-73
2023/10/03 11:29:55;;;;;;;18.48;6.57;;;26.20;93.70;;;;;;5048761;28;20037;-72
2023/10/03 11:32:24;;;;;;;12.18;6.50;;;26.60;94.60;;;;;;5046585;28;20025;-73
2023/10/03 11:34:54;;;;;;;11.93;6.07;;;26.70;94.00;;;;;;5048778;28;20029;-72
2023/10/03 11:37:39;;;;;;;19.05;6.57;;;26.80;92.80;;;;;;5045665;28;20049;-74
2023/10/03 11:40:18;;;;;;;16.05;5.85;;;26.90;93.30;;;;;;5047066;28;20170;-74
2023/10/03 11:42:58;;;;;;;12.97;6.23;;;27.20;92.40;;;;;;5031450;28;20052;-72
2023/10/03 11:45:28;;;;;;;11.55;5.93;;;27.20;92.30;;;;;;5031867;28;20028;-74
2023/10/03 11:48:30;;;;;;;11.57;6.50;;;27.30;92.50;;;;;;5045449;28;20393;-73
2023/10/03 11:50:58;;;;;;;12.40;6.07;;;27.10;92.60;;;;;;5015891;28;20124;-74
2023/10/03 11:53:23;;;;;;;12.52;6.35;;;26.90;92.40;;;;;;5046773;28;20506;-74
2023/10/03 11:55:52;;;;;;;12.98;6.13;;;26.70;92.90;;;;;;5048405;28;20056;-73
2023/10/03 11:58:18;;;;;;;13.88;6.32;;;26.60;93.00;;;;;;5047363;28;20104;-73
2023/10/03 12:00:44;;;;;;;13.05;6.20;;;26.50;93.30;;;;;;5048319;28;20065;-72
2023/10/03 12:03:10;;;;;;;10.95;5.90;;;26.50;95.20;;;;;;5047587;28;20075;-72
2023/10/03 12:05:36;;;;;;;15.02;6.45;;;26.50;93.20;;;;;;5048405;28;20086;-72
2023/10/03 12:08:04;;;;;;;13.05;6.45;;;26.60;94.50;;;;;;5047212;28;20029;-73
2023/10/03 12:10:31;;;;;;;18.60;6.47;;;26.80;93.40;;;;;;5048363;28;20059;-71
2023/10/03 12:12:57;;;;;;;13.57;6.57;;;26.60;93.40;;;;;;5048159;28;20039;-72
2023/10/03 12:15:24;;;;;;;16.52;6.55;;;26.50;93.60;;;;;;5047777;28;20036;-71
2023/10/03 12:17:51;;;;;;;11.40;6.43;;;26.60;93.60;;;;;;5048333;28;20036;-72
2023/10/03 12:20:18;;;;;;;13.82;5.97;;;26.80;93.90;;;;;;5045988;28;20151;-73
2023/10/03 12:22:47;;;;;;;14.05;6.03;;;27.00;93.30;;;;;;5048211;28;20029;-74
2023/10/03 12:25:14;;;;;;;11.93;5.70;;;26.90;92.60;;;;;;5047297;28;20116;-73
2023/10/03 12:27:41;;;;;;;16.33;6.53;;;26.70;93.20;;;;;;5048160;28;20025;-70
2023/10/03 12:30:10;;;;;;;13.73;6.10;;;26.30;93.70;;;;;;5049633;28;20033;-72
2023/10/03 12:32:38;;;;;;;18.15;7.18;;;26.10;93.70;;;;;;5052394;28;20032;-74
2023/10/03 12:35:05;;;;;;;13.43;7.03;;;25.90;93.90;;;;;;5051336;28;20078;-73
2023/10/03 12:37:31;;;;;;;11.38;6.18;;;25.80;94.00;;;;;;5051603;28;20740;-74
2023/10/03 12:40:04;;;;;;;18.67;6.70;;;25.60;94.50;;;;;;5051997;28;20041;-74
2023/10/03 12:42:33;;;;;;;13.93;6.40;;;25.60;94.70;;;;;;5052166;28;20029;-73